San Luis, AZ

9:41 PM MST en Marzo 02, 2015 (GMT -0700)
YCWUA International Boundary Pumping Plant | Change Station
CLOSE
Current Station
Estación meteorológica personal
Location: San Luis, AZ
Altura: 79 ft
Estaciones meteorológicas cercanas

Alt 79 ft 32.49 °N, 114.79 °W | Updated 34 seconds ago

Muy nublado
Muy nublado
56.2 ° F
Sensación térmica 56.2 ° F
N
0.0
Viento Variable Viento desde Este
Gusts 0.0 mph

Hoy
Alta -- | Baja -- ° F
--% Posibilidad de precipitaciones
Ayer
Alta -- | Baja -- ° F
Precip. -- pul
7:05 AM 6:37 PM
Gibosa creciente, 94% visible
Presión 29.97 pul
Visibilidad 10.0 Millas
Nubes Baja 6000 ft
Muy nublado 10000 ft
Punto de rocío 49 ° F
Humedad 77%
Precipitaciones 0.15 pul
Espesor de la nieve No disponible.
UV 0 de una escala de 12
Polen 10.30 de una escala de 12
Calidad del aire No disponible.
Flu Activity No disponible.
METAR KNYL 030357Z 36003KT 10SM -RA FEW060 BKN100 15/07 A2997 RMK AO2 RAB50 SLP147 P0000 T01500072

More Conditions Fewer Conditions

Presión 29.97 pul
Visibilidad 10.0 Millas
Nubes Baja 6000 ft
Muy nublado 10000 ft
Punto de rocío 49 ° F
Humedad 77%
Precipitaciones 0.15 pul
Espesor de la nieve No disponible.
UV 0 de una escala de 12
Polen 10.30 de una escala de 12
Calidad del aire No disponible.
Flu Activity No disponible.
METAR KNYL 030357Z 36003KT 10SM -RA FEW060 BKN100 15/07 A2997 RMK AO2 RAB50 SLP147 P0000 T01500072

More Conditions Fewer Conditions

10-Day Weather Forecast

Almanac

Astronomía

Mar. 02, 2015 Salida Puesta
Hora real
Crepúsculo civil
Crepúsculo náutico
Crepúsculo astronómico
Luna
Horas de luz
Horas de luz
Tomorrow will be .
, % of the Moon is Illuminated

Extremos de hoy

Máximos del estado Bajos del estado

Community

WunderPhotos

Upload Photos

1,802,064 ¡fotos cargadas!

WunderBlogs® & News

Nearby

Calidad del aire

  Calidad del aire Índice AQ Contaminante
Not available.

Grosos de nieve

Estación Profundido Altura

Actividad de terremotos

Ciudad Distance Mag. Tiempo y dato
Magnitud mínima muestra es 2,5.

Temperaturas de aguas costeras

Lugar Temperatura

Estaciones meteorológicas cercanas